sensor_id;sensor_type;location;lat;lon;timestamp;temperature;humidity
10149;DHT22;5115;50.920;6.376;2023-01-28T00:01:48;4.30;99.90
10149;DHT22;5115;50.920;6.376;2023-01-28T00:04:13;4.30;99.90
10149;DHT22;5115;50.920;6.376;2023-01-28T00:06:39;4.40;99.90
10149;DHT22;5115;50.920;6.376;2023-01-28T00:09:05;4.40;99.90
10149;DHT22;5115;50.920;6.376;2023-01-28T00:11:30;4.40;99.90
10149;DHT22;5115;50.920;6.376;2023-01-28T00:13:56;4.50;99.90
10149;DHT22;5115;50.920;6.376;2023-01-28T00:16:21;4.50;99.90
10149;DHT22;5115;50.920;6.376;2023-01-28T00:18:47;4.50;99.90
10149;DHT22;5115;50.920;6.376;2023-01-28T00:21:14;4.50;99.90
10149;DHT22;5115;50.920;6.376;2023-01-28T00:23:41;4.40;99.90
10149;DHT22;5115;50.920;6.376;2023-01-28T00:26:10;4.40;99.90
10149;DHT22;5115;50.920;6.376;2023-01-28T00:28:36;4.40;99.90
10149;DHT22;5115;50.920;6.376;2023-01-28T00:31:06;4.30;99.90
10149;DHT22;5115;50.920;6.376;2023-01-28T00:33:37;4.30;99.90
10149;DHT22;5115;50.920;6.376;2023-01-28T00:36:05;4.20;99.90
10149;DHT22;5115;50.920;6.376;2023-01-28T00:38:52;4.30;99.90
10149;DHT22;5115;50.920;6.376;2023-01-28T00:41:20;4.30;99.90
10149;DHT22;5115;50.920;6.376;2023-01-28T00:43:47;4.20;99.90
10149;DHT22;5115;50.920;6.376;2023-01-28T00:46:13;4.30;99.90
10149;DHT22;5115;50.920;6.376;2023-01-28T00:48:40;4.20;99.90
10149;DHT22;5115;50.920;6.376;2023-01-28T00:51:07;4.30;99.90
10149;DHT22;5115;50.920;6.376;2023-01-28T00:53:33;4.30;99.90
10149;DHT22;5115;50.920;6.376;2023-01-28T00:56:03;4.40;99.90
10149;DHT22;5115;50.920;6.376;2023-01-28T00:58:29;4.30;99.90
10149;DHT22;5115;50.920;6.376;2023-01-28T01:00:54;4.30;99.90
10149;DHT22;5115;50.920;6.376;2023-01-28T01:03:20;4.30;99.90
10149;DHT22;5115;50.920;6.376;2023-01-28T01:05:46;4.40;99.90
10149;DHT22;5115;50.920;6.376;2023-01-28T01:08:11;4.30;99.90
10149;DHT22;5115;50.920;6.376;2023-01-28T01:10:38;4.40;99.90
10149;DHT22;5115;50.920;6.376;2023-01-28T01:13:07;4.40;99.90
10149;DHT22;5115;50.920;6.376;2023-01-28T01:15:33;4.50;99.90
10149;DHT22;5115;50.920;6.376;2023-01-28T01:17:58;4.50;99.90
10149;DHT22;5115;50.920;6.376;2023-01-28T01:20:27;4.50;99.90
10149;DHT22;5115;50.920;6.376;2023-01-28T01:22:53;4.50;99.90
10149;DHT22;5115;50.920;6.376;2023-01-28T01:25:19;4.50;99.90
10149;DHT22;5115;50.920;6.376;2023-01-28T01:27:47;4.50;99.90
10149;DHT22;5115;50.920;6.376;2023-01-28T01:30:13;4.70;99.90
10149;DHT22;5115;50.920;6.376;2023-01-28T01:32:39;4.70;99.90
10149;DHT22;5115;50.920;6.376;2023-01-28T01:35:06;4.70;99.90
10149;DHT22;5115;50.920;6.376;2023-01-28T01:37:33;4.70;99.90
10149;DHT22;5115;50.920;6.376;2023-01-28T01:39:58;4.70;99.90
10149;DHT22;5115;50.920;6.376;2023-01-28T01:42:26;4.70;99.90
10149;DHT22;5115;50.920;6.376;2023-01-28T01:44:56;4.70;99.90
10149;DHT22;5115;50.920;6.376;2023-01-28T01:50:22;4.60;99.90
10149;DHT22;5115;50.920;6.376;2023-01-28T01:52:52;4.50;99.90
10149;DHT22;5115;50.920;6.376;2023-01-28T01:55:22;4.50;99.90
10149;DHT22;5115;50.920;6.376;2023-01-28T01:57:50;5.10;99.90
10149;DHT22;5115;50.920;6.376;2023-01-28T02:00:17;4.40;99.90
10149;DHT22;5115;50.920;6.376;2023-01-28T02:02:46;4.40;99.90
10149;DHT22;5115;50.920;6.376;2023-01-28T02:05:16;4.40;99.90
10149;DHT22;5115;50.920;6.376;2023-01-28T02:07:42;4.30;99.90
10149;DHT22;5115;50.920;6.376;2023-01-28T02:10:10;4.30;99.90
10149;DHT22;5115;50.920;6.376;2023-01-28T02:12:40;4.30;99.90
10149;DHT22;5115;50.920;6.376;2023-01-28T02:15:15;4.40;99.90
10149;DHT22;5115;50.920;6.376;2023-01-28T02:17:41;4.30;99.90
10149;DHT22;5115;50.920;6.376;2023-01-28T02:20:11;4.40;99.90
10149;DHT22;5115;50.920;6.376;2023-01-28T02:28:36;4.30;99.90
10149;DHT22;5115;50.920;6.376;2023-01-28T02:33:49;4.20;99.90
10149;DHT22;5115;50.920;6.376;2023-01-28T02:39:33;4.10;99.90
10149;DHT22;5115;50.920;6.376;2023-01-28T02:42:05;4.10;99.90
10149;DHT22;5115;50.920;6.376;2023-01-28T02:44:31;4.10;99.90
10149;DHT22;5115;50.920;6.376;2023-01-28T02:46:57;4.10;99.90
10149;DHT22;5115;50.920;6.376;2023-01-28T02:49:52;4.00;99.90
10149;DHT22;5115;50.920;6.376;2023-01-28T02:55:52;4.10;99.90
10149;DHT22;5115;50.920;6.376;2023-01-28T02:58:36;4.10;99.90
10149;DHT22;5115;50.920;6.376;2023-01-28T03:01:32;4.00;99.90
10149;DHT22;5115;50.920;6.376;2023-01-28T03:04:18;4.00;99.90
10149;DHT22;5115;50.920;6.376;2023-01-28T03:06:50;4.00;99.90
10149;DHT22;5115;50.920;6.376;2023-01-28T03:09:18;4.00;99.90
10149;DHT22;5115;50.920;6.376;2023-01-28T03:14:50;3.80;99.90
10149;DHT22;5115;50.920;6.376;2023-01-28T03:17:48;3.80;99.90
10149;DHT22;5115;50.920;6.376;2023-01-28T03:20:55;3.80;99.90
10149;DHT22;5115;50.920;6.376;2023-01-28T03:23:47;3.80;99.90
10149;DHT22;5115;50.920;6.376;2023-01-28T03:26:35;3.90;99.90
10149;DHT22;5115;50.920;6.376;2023-01-28T03:29:22;3.80;99.90
10149;DHT22;5115;50.920;6.376;2023-01-28T03:32:08;3.80;99.90
10149;DHT22;5115;50.920;6.376;2023-01-28T03:34:54;3.80;99.90
10149;DHT22;5115;50.920;6.376;2023-01-28T03:37:38;3.80;99.90
10149;DHT22;5115;50.920;6.376;2023-01-28T03:40:06;4.70;99.90
10149;DHT22;5115;50.920;6.376;2023-01-28T03:42:31;3.70;99.90
10149;DHT22;5115;50.920;6.376;2023-01-28T03:44:57;3.70;99.90
10149;DHT22;5115;50.920;6.376;2023-01-28T03:47:27;3.70;99.90
10149;DHT22;5115;50.920;6.376;2023-01-28T03:49:54;3.70;99.90
10149;DHT22;5115;50.920;6.376;2023-01-28T03:52:25;3.70;99.90
10149;DHT22;5115;50.920;6.376;2023-01-28T03:54:51;3.70;99.90
10149;DHT22;5115;50.920;6.376;2023-01-28T03:57:25;3.70;99.90
10149;DHT22;5115;50.920;6.376;2023-01-28T03:59:51;3.60;99.90
10149;DHT22;5115;50.920;6.376;2023-01-28T04:02:19;3.70;99.90
10149;DHT22;5115;50.920;6.376;2023-01-28T04:04:44;3.60;99.90
10149;DHT22;5115;50.920;6.376;2023-01-28T04:07:11;3.50;99.90
10149;DHT22;5115;50.920;6.376;2023-01-28T04:09:39;3.50;99.90
10149;DHT22;5115;50.920;6.376;2023-01-28T04:12:05;3.50;99.90
10149;DHT22;5115;50.920;6.376;2023-01-28T04:14:31;3.40;99.90
10149;DHT22;5115;50.920;6.376;2023-01-28T04:16:57;3.40;99.90
10149;DHT22;5115;50.920;6.376;2023-01-28T04:19:23;3.30;99.90
10149;DHT22;5115;50.920;6.376;2023-01-28T04:21:49;3.40;99.90
10149;DHT22;5115;50.920;6.376;2023-01-28T04:24:15;3.40;99.90
10149;DHT22;5115;50.920;6.376;2023-01-28T04:26:41;3.40;99.90
10149;DHT22;5115;50.920;6.376;2023-01-28T04:29:06;3.40;99.90
10149;DHT22;5115;50.920;6.376;2023-01-28T04:31:32;3.50;99.90
10149;DHT22;5115;50.920;6.376;2023-01-28T04:33:58;3.40;99.90
10149;DHT22;5115;50.920;6.376;2023-01-28T04:36:25;3.30;99.90
10149;DHT22;5115;50.920;6.376;2023-01-28T04:38:50;3.30;99.90
10149;DHT22;5115;50.920;6.376;2023-01-28T04:41:16;3.30;99.90
10149;DHT22;5115;50.920;6.376;2023-01-28T04:43:42;3.40;99.90
10149;DHT22;5115;50.920;6.376;2023-01-28T04:46:07;3.30;99.90
10149;DHT22;5115;50.920;6.376;2023-01-28T04:48:33;4.30;99.90
10149;DHT22;5115;50.920;6.376;2023-01-28T04:51:01;3.30;99.90
10149;DHT22;5115;50.920;6.376;2023-01-28T04:53:26;3.30;99.90
10149;DHT22;5115;50.920;6.376;2023-01-28T04:55:52;3.30;99.90
10149;DHT22;5115;50.920;6.376;2023-01-28T04:58:19;3.20;99.90
10149;DHT22;5115;50.920;6.376;2023-01-28T05:00:44;3.30;99.90
10149;DHT22;5115;50.920;6.376;2023-01-28T05:03:10;3.30;99.90
10149;DHT22;5115;50.920;6.376;2023-01-28T05:05:35;3.30;99.90
10149;DHT22;5115;50.920;6.376;2023-01-28T05:08:01;3.30;99.90
10149;DHT22;5115;50.920;6.376;2023-01-28T05:10:27;3.20;99.90
10149;DHT22;5115;50.920;6.376;2023-01-28T05:12:52;3.20;99.90
10149;DHT22;5115;50.920;6.376;2023-01-28T05:15:19;3.30;99.90
10149;DHT22;5115;50.920;6.376;2023-01-28T05:17:44;4.60;99.90
10149;DHT22;5115;50.920;6.376;2023-01-28T05:20:12;3.30;99.90
10149;DHT22;5115;50.920;6.376;2023-01-28T05:22:38;3.40;99.90
10149;DHT22;5115;50.920;6.376;2023-01-28T05:25:04;3.40;99.90
10149;DHT22;5115;50.920;6.376;2023-01-28T05:27:31;3.40;99.90
10149;DHT22;5115;50.920;6.376;2023-01-28T05:29:57;3.40;99.90
10149;DHT22;5115;50.920;6.376;2023-01-28T05:32:23;3.40;99.90
10149;DHT22;5115;50.920;6.376;2023-01-28T05:34:48;3.30;99.90
10149;DHT22;5115;50.920;6.376;2023-01-28T05:37:14;3.30;99.90
10149;DHT22;5115;50.920;6.376;2023-01-28T05:39:39;3.20;99.90
10149;DHT22;5115;50.920;6.376;2023-01-28T05:42:05;3.20;99.90
10149;DHT22;5115;50.920;6.376;2023-01-28T05:44:31;3.20;99.90
10149;DHT22;5115;50.920;6.376;2023-01-28T05:46:56;3.20;99.90
10149;DHT22;5115;50.920;6.376;2023-01-28T05:49:22;3.20;99.90
10149;DHT22;5115;50.920;6.376;2023-01-28T05:51:47;3.20;99.90
10149;DHT22;5115;50.920;6.376;2023-01-28T05:54:14;3.30;99.90
10149;DHT22;5115;50.920;6.376;2023-01-28T05:56:39;3.30;99.90
10149;DHT22;5115;50.920;6.376;2023-01-28T05:59:05;3.30;99.90
10149;DHT22;5115;50.920;6.376;2023-01-28T06:01:30;3.20;99.90
10149;DHT22;5115;50.920;6.376;2023-01-28T06:03:56;3.30;99.90
10149;DHT22;5115;50.920;6.376;2023-01-28T06:06:22;3.30;99.90
10149;DHT22;5115;50.920;6.376;2023-01-28T06:08:47;3.40;99.90
10149;DHT22;5115;50.920;6.376;2023-01-28T06:11:13;3.40;99.90
10149;DHT22;5115;50.920;6.376;2023-01-28T06:13:38;3.40;99.90
10149;DHT22;5115;50.920;6.376;2023-01-28T06:16:06;3.30;99.90
10149;DHT22;5115;50.920;6.376;2023-01-28T06:18:32;3.30;99.90
10149;DHT22;5115;50.920;6.376;2023-01-28T06:20:57;3.30;99.90
10149;DHT22;5115;50.920;6.376;2023-01-28T06:23:23;3.40;99.90
10149;DHT22;5115;50.920;6.376;2023-01-28T06:25:55;3.50;99.90
10149;DHT22;5115;50.920;6.376;2023-01-28T06:28:22;3.50;99.90
10149;DHT22;5115;50.920;6.376;2023-01-28T06:30:49;3.40;99.90
10149;DHT22;5115;50.920;6.376;2023-01-28T06:33:16;3.50;99.90
10149;DHT22;5115;50.920;6.376;2023-01-28T06:35:42;3.50;99.90
10149;DHT22;5115;50.920;6.376;2023-01-28T06:38:07;3.40;99.90
10149;DHT22;5115;50.920;6.376;2023-01-28T06:40:33;3.40;99.90
10149;DHT22;5115;50.920;6.376;2023-01-28T06:42:58;4.30;99.90
10149;DHT22;5115;50.920;6.376;2023-01-28T06:45:24;3.40;99.90
10149;DHT22;5115;50.920;6.376;2023-01-28T06:47:50;3.40;99.90
10149;DHT22;5115;50.920;6.376;2023-01-28T06:50:15;3.40;99.90
10149;DHT22;5115;50.920;6.376;2023-01-28T06:52:41;3.40;99.90
10149;DHT22;5115;50.920;6.376;2023-01-28T06:55:07;3.50;99.90
10149;DHT22;5115;50.920;6.376;2023-01-28T06:57:33;3.40;99.90
10149;DHT22;5115;50.920;6.376;2023-01-28T06:59:58;3.40;99.90
10149;DHT22;5115;50.920;6.376;2023-01-28T07:02:24;3.40;99.90
10149;DHT22;5115;50.920;6.376;2023-01-28T07:04:49;3.40;99.90
10149;DHT22;5115;50.920;6.376;2023-01-28T07:07:15;3.40;99.90
10149;DHT22;5115;50.920;6.376;2023-01-28T07:09:40;3.50;99.90
10149;DHT22;5115;50.920;6.376;2023-01-28T07:12:06;3.60;99.90
10149;DHT22;5115;50.920;6.376;2023-01-28T07:14:32;3.40;99.90
10149;DHT22;5115;50.920;6.376;2023-01-28T07:16:57;3.40;99.90
10149;DHT22;5115;50.920;6.376;2023-01-28T07:19:23;3.40;99.90
10149;DHT22;5115;50.920;6.376;2023-01-28T07:21:48;3.50;99.90
10149;DHT22;5115;50.920;6.376;2023-01-28T07:24:14;3.50;99.90
10149;DHT22;5115;50.920;6.376;2023-01-28T07:26:39;3.50;99.90
10149;DHT22;5115;50.920;6.376;2023-01-28T07:29:05;3.40;99.90
10149;DHT22;5115;50.920;6.376;2023-01-28T07:31:34;3.40;99.90
10149;DHT22;5115;50.920;6.376;2023-01-28T07:33:59;3.50;99.90
10149;DHT22;5115;50.920;6.376;2023-01-28T07:36:25;3.50;99.90
10149;DHT22;5115;50.920;6.376;2023-01-28T07:38:50;3.50;99.90
10149;DHT22;5115;50.920;6.376;2023-01-28T07:41:16;3.50;99.90
10149;DHT22;5115;50.920;6.376;2023-01-28T07:43:41;4.20;99.90
10149;DHT22;5115;50.920;6.376;2023-01-28T07:46:07;3.40;99.90
10149;DHT22;5115;50.920;6.376;2023-01-28T07:48:32;3.30;99.90
10149;DHT22;5115;50.920;6.376;2023-01-28T07:51:00;3.30;99.90
10149;DHT22;5115;50.920;6.376;2023-01-28T07:53:25;3.30;99.90
10149;DHT22;5115;50.920;6.376;2023-01-28T07:55:51;3.50;99.90
10149;DHT22;5115;50.920;6.376;2023-01-28T07:58:17;3.50;99.90
10149;DHT22;5115;50.920;6.376;2023-01-28T08:00:42;3.60;99.90
10149;DHT22;5115;50.920;6.376;2023-01-28T08:03:14;3.60;99.90
10149;DHT22;5115;50.920;6.376;2023-01-28T08:05:46;3.60;99.90
10149;DHT22;5115;50.920;6.376;2023-01-28T08:08:12;3.60;99.90
10149;DHT22;5115;50.920;6.376;2023-01-28T08:10:38;3.60;99.90
10149;DHT22;5115;50.920;6.376;2023-01-28T08:13:05;3.60;99.90
10149;DHT22;5115;50.920;6.376;2023-01-28T08:15:30;3.60;99.90
10149;DHT22;5115;50.920;6.376;2023-01-28T08:17:57;3.50;99.90
10149;DHT22;5115;50.920;6.376;2023-01-28T08:20:26;3.60;99.90
10149;DHT22;5115;50.920;6.376;2023-01-28T08:22:52;3.60;99.90
10149;DHT22;5115;50.920;6.376;2023-01-28T08:25:17;3.60;99.90
10149;DHT22;5115;50.920;6.376;2023-01-28T08:27:43;3.60;99.90
10149;DHT22;5115;50.920;6.376;2023-01-28T08:30:09;3.40;99.90
10149;DHT22;5115;50.920;6.376;2023-01-28T08:32:35;3.50;99.90
10149;DHT22;5115;50.920;6.376;2023-01-28T08:35:01;3.50;99.90
10149;DHT22;5115;50.920;6.376;2023-01-28T08:37:27;3.50;99.90
10149;DHT22;5115;50.920;6.376;2023-01-28T08:39:52;3.40;99.90
10149;DHT22;5115;50.920;6.376;2023-01-28T08:42:18;3.40;99.90
10149;DHT22;5115;50.920;6.376;2023-01-28T08:44:44;3.50;99.90
10149;DHT22;5115;50.920;6.376;2023-01-28T08:47:09;4.20;99.90
10149;DHT22;5115;50.920;6.376;2023-01-28T08:49:35;3.70;99.90
10149;DHT22;5115;50.920;6.376;2023-01-28T08:52:00;3.60;99.90
10149;DHT22;5115;50.920;6.376;2023-01-28T08:54:26;3.60;99.90
10149;DHT22;5115;50.920;6.376;2023-01-28T08:56:51;3.60;99.90
10149;DHT22;5115;50.920;6.376;2023-01-28T08:59:17;3.40;99.90
10149;DHT22;5115;50.920;6.376;2023-01-28T09:01:44;3.40;99.90
10149;DHT22;5115;50.920;6.376;2023-01-28T09:04:10;3.50;99.90
10149;DHT22;5115;50.920;6.376;2023-01-28T09:06:35;3.60;99.90
10149;DHT22;5115;50.920;6.376;2023-01-28T09:09:01;3.50;99.90
10149;DHT22;5115;50.920;6.376;2023-01-28T09:11:28;3.50;99.90
10149;DHT22;5115;50.920;6.376;2023-01-28T09:13:55;4.50;99.90
10149;DHT22;5115;50.920;6.376;2023-01-28T09:16:21;3.40;99.90
10149;DHT22;5115;50.920;6.376;2023-01-28T09:18:46;3.40;99.90
10149;DHT22;5115;50.920;6.376;2023-01-28T09:21:13;3.40;99.90
10149;DHT22;5115;50.920;6.376;2023-01-28T09:23:39;3.40;99.90
10149;DHT22;5115;50.920;6.376;2023-01-28T09:26:05;3.30;99.90
10149;DHT22;5115;50.920;6.376;2023-01-28T09:28:31;3.40;99.90
10149;DHT22;5115;50.920;6.376;2023-01-28T09:31:10;3.50;99.90
10149;DHT22;5115;50.920;6.376;2023-01-28T09:33:39;3.50;99.90
10149;DHT22;5115;50.920;6.376;2023-01-28T09:36:07;3.50;99.90
10149;DHT22;5115;50.920;6.376;2023-01-28T09:38:33;3.40;99.90
10149;DHT22;5115;50.920;6.376;2023-01-28T09:41:09;3.40;99.90
10149;DHT22;5115;50.920;6.376;2023-01-28T09:46:16;3.50;99.90
10149;DHT22;5115;50.920;6.376;2023-01-28T09:48:49;3.50;99.90
10149;DHT22;5115;50.920;6.376;2023-01-28T09:53:54;3.50;99.90
10149;DHT22;5115;50.920;6.376;2023-01-28T09:56:25;3.60;99.90
10149;DHT22;5115;50.920;6.376;2023-01-28T09:58:53;3.50;99.90
10149;DHT22;5115;50.920;6.376;2023-01-28T10:01:35;3.60;99.90
10149;DHT22;5115;50.920;6.376;2023-01-28T10:04:17;3.60;99.90
10149;DHT22;5115;50.920;6.376;2023-01-28T10:09:39;3.50;99.90
10149;DHT22;5115;50.920;6.376;2023-01-28T10:12:41;3.50;99.90
10149;DHT22;5115;50.920;6.376;2023-01-28T10:18:14;3.50;99.90
10149;DHT22;5115;50.920;6.376;2023-01-28T10:20:45;3.30;99.90
10149;DHT22;5115;50.920;6.376;2023-01-28T10:25:59;3.80;99.90
10149;DHT22;5115;50.920;6.376;2023-01-28T10:28:28;3.70;99.90
10149;DHT22;5115;50.920;6.376;2023-01-28T10:30:54;3.70;99.90
10149;DHT22;5115;50.920;6.376;2023-01-28T10:33:32;3.60;99.90
10149;DHT22;5115;50.920;6.376;2023-01-28T10:36:00;3.60;99.90
10149;DHT22;5115;50.920;6.376;2023-01-28T10:38:26;3.60;99.90
10149;DHT22;5115;50.920;6.376;2023-01-28T10:40:53;3.60;99.90
10149;DHT22;5115;50.920;6.376;2023-01-28T10:43:24;3.60;99.90
10149;DHT22;5115;50.920;6.376;2023-01-28T10:48:28;3.70;99.90
10149;DHT22;5115;50.920;6.376;2023-01-28T10:50:57;3.80;99.90
10149;DHT22;5115;50.920;6.376;2023-01-28T10:53:42;3.80;99.90
10149;DHT22;5115;50.920;6.376;2023-01-28T10:56:11;3.70;99.90
10149;DHT22;5115;50.920;6.376;2023-01-28T11:01:49;3.80;99.90
10149;DHT22;5115;50.920;6.376;2023-01-28T11:04:26;3.70;99.90
10149;DHT22;5115;50.920;6.376;2023-01-28T11:07:03;3.80;99.90
10149;DHT22;5115;50.920;6.376;2023-01-28T11:09:35;3.70;99.90
10149;DHT22;5115;50.920;6.376;2023-01-28T11:12:16;3.80;99.90
10149;DHT22;5115;50.920;6.376;2023-01-28T11:14:56;3.80;99.90
10149;DHT22;5115;50.920;6.376;2023-01-28T11:17:24;3.80;99.90
10149;DHT22;5115;50.920;6.376;2023-01-28T11:19:52;3.90;99.90
10149;DHT22;5115;50.920;6.376;2023-01-28T11:27:52;3.80;99.90
10149;DHT22;5115;50.920;6.376;2023-01-28T11:30:30;3.90;99.90
10149;DHT22;5115;50.920;6.376;2023-01-28T11:33:06;3.90;99.90
10149;DHT22;5115;50.920;6.376;2023-01-28T11:35:32;4.00;99.90
10149;DHT22;5115;50.920;6.376;2023-01-28T11:37:59;4.10;99.90
10149;DHT22;5115;50.920;6.376;2023-01-28T11:40:25;4.00;99.90
10149;DHT22;5115;50.920;6.376;2023-01-28T11:42:52;4.00;99.90
10149;DHT22;5115;50.920;6.376;2023-01-28T11:45:34;4.00;99.90
10149;DHT22;5115;50.920;6.376;2023-01-28T11:51:02;4.10;99.90
10149;DHT22;5115;50.920;6.376;2023-01-28T11:54:12;4.00;99.90
10149;DHT22;5115;50.920;6.376;2023-01-28T12:04:51;3.80;99.90
10149;DHT22;5115;50.920;6.376;2023-01-28T12:19:22;3.70;99.90
10149;DHT22;5115;50.920;6.376;2023-01-28T12:22:32;3.70;99.90
10149;DHT22;5115;50.920;6.376;2023-01-28T12:28:14;3.70;99.90
10149;DHT22;5115;50.920;6.376;2023-01-28T12:33:56;3.70;99.90
10149;DHT22;5115;50.920;6.376;2023-01-28T12:36:47;3.70;99.90
10149;DHT22;5115;50.920;6.376;2023-01-28T12:41:56;3.70;99.90
10149;DHT22;5115;50.920;6.376;2023-01-28T12:44:34;3.70;99.90
10149;DHT22;5115;50.920;6.376;2023-01-28T12:47:09;3.70;99.90
10149;DHT22;5115;50.920;6.376;2023-01-28T12:49:50;3.80;99.90
10149;DHT22;5115;50.920;6.376;2023-01-28T12:52:28;3.80;99.90
10149;DHT22;5115;50.920;6.376;2023-01-28T12:55:17;3.90;99.90
10149;DHT22;5115;50.920;6.376;2023-01-28T12:57:45;3.90;99.90
10149;DHT22;5115;50.920;6.376;2023-01-28T13:00:32;3.70;99.90
10149;DHT22;5115;50.920;6.376;2023-01-28T13:09:24;3.70;99.90
10149;DHT22;5115;50.920;6.376;2023-01-28T13:12:15;3.00;99.90
10149;DHT22;5115;50.920;6.376;2023-01-28T13:14:42;3.70;99.90
10149;DHT22;5115;50.920;6.376;2023-01-28T13:17:09;3.70;99.90
10149;DHT22;5115;50.920;6.376;2023-01-28T13:19:39;3.80;99.90
10149;DHT22;5115;50.920;6.376;2023-01-28T13:22:31;3.50;99.90
10149;DHT22;5115;50.920;6.376;2023-01-28T13:24:55;3.50;99.90
10149;DHT22;5115;50.920;6.376;2023-01-28T13:27:26;3.60;99.90
10149;DHT22;5115;50.920;6.376;2023-01-28T13:30:17;3.80;99.90
10149;DHT22;5115;50.920;6.376;2023-01-28T13:32:54;3.80;99.90
10149;DHT22;5115;50.920;6.376;2023-01-28T13:35:35;3.80;99.90
10149;DHT22;5115;50.920;6.376;2023-01-28T13:38:18;3.80;99.90
10149;DHT22;5115;50.920;6.376;2023-01-28T13:40:53;3.90;99.90
10149;DHT22;5115;50.920;6.376;2023-01-28T13:46:03;4.00;99.90
10149;DHT22;5115;50.920;6.376;2023-01-28T13:51:03;3.90;99.90
10149;DHT22;5115;50.920;6.376;2023-01-28T13:53:46;4.00;99.90
10149;DHT22;5115;50.920;6.376;2023-01-28T13:56:25;4.10;99.90
10149;DHT22;5115;50.920;6.376;2023-01-28T14:01:36;5.50;99.90
10149;DHT22;5115;50.920;6.376;2023-01-28T14:08:03;4.40;99.90
10149;DHT22;5115;50.920;6.376;2023-01-28T14:16:19;4.20;99.90
10149;DHT22;5115;50.920;6.376;2023-01-28T14:18:48;4.20;99.90
10149;DHT22;5115;50.920;6.376;2023-01-28T14:21:20;4.10;99.90
10149;DHT22;5115;50.920;6.376;2023-01-28T14:23:49;4.10;99.90
10149;DHT22;5115;50.920;6.376;2023-01-28T14:26:36;4.00;99.90
10149;DHT22;5115;50.920;6.376;2023-01-28T14:31:38;4.10;99.90
10149;DHT22;5115;50.920;6.376;2023-01-28T14:34:26;4.10;99.90
10149;DHT22;5115;50.920;6.376;2023-01-28T14:37:00;4.20;99.90
10149;DHT22;5115;50.920;6.376;2023-01-28T14:39:31;4.10;99.90
10149;DHT22;5115;50.920;6.376;2023-01-28T14:42:00;4.10;99.90
10149;DHT22;5115;50.920;6.376;2023-01-28T14:44:35;4.10;99.90
10149;DHT22;5115;50.920;6.376;2023-01-28T14:47:28;4.00;99.90
10149;DHT22;5115;50.920;6.376;2023-01-28T14:58:15;3.80;99.90
10149;DHT22;5115;50.920;6.376;2023-01-28T15:00:55;3.20;99.90
10149;DHT22;5115;50.920;6.376;2023-01-28T15:03:22;3.60;99.90
10149;DHT22;5115;50.920;6.376;2023-01-28T15:05:48;3.50;99.90
10149;DHT22;5115;50.920;6.376;2023-01-28T15:08:21;3.20;99.90
10149;DHT22;5115;50.920;6.376;2023-01-28T15:10:48;3.50;99.90
10149;DHT22;5115;50.920;6.376;2023-01-28T15:13:37;3.60;99.90
10149;DHT22;5115;50.920;6.376;2023-01-28T15:16:04;3.70;99.90
10149;DHT22;5115;50.920;6.376;2023-01-28T15:18:34;3.60;99.90
10149;DHT22;5115;50.920;6.376;2023-01-28T15:21:01;4.50;99.90
10149;DHT22;5115;50.920;6.376;2023-01-28T15:23:31;3.40;99.90
10149;DHT22;5115;50.920;6.376;2023-01-28T15:25:58;3.30;99.90
10149;DHT22;5115;50.920;6.376;2023-01-28T15:28:25;3.30;99.90
10149;DHT22;5115;50.920;6.376;2023-01-28T15:30:51;3.20;99.90
10149;DHT22;5115;50.920;6.376;2023-01-28T15:33:16;3.20;99.90
10149;DHT22;5115;50.920;6.376;2023-01-28T15:35:49;3.20;99.90
10149;DHT22;5115;50.920;6.376;2023-01-28T15:38:15;3.20;99.90
10149;DHT22;5115;50.920;6.376;2023-01-28T15:40:48;3.20;99.90
10149;DHT22;5115;50.920;6.376;2023-01-28T15:43:20;3.20;99.90
10149;DHT22;5115;50.920;6.376;2023-01-28T15:45:47;3.30;99.90
10149;DHT22;5115;50.920;6.376;2023-01-28T15:48:14;3.30;99.90
10149;DHT22;5115;50.920;6.376;2023-01-28T15:50:42;3.30;99.90
10149;DHT22;5115;50.920;6.376;2023-01-28T15:53:11;3.30;99.90
10149;DHT22;5115;50.920;6.376;2023-01-28T15:55:43;3.30;99.90
10149;DHT22;5115;50.920;6.376;2023-01-28T15:58:25;3.30;99.90
10149;DHT22;5115;50.920;6.376;2023-01-28T16:01:02;3.30;99.90
10149;DHT22;5115;50.920;6.376;2023-01-28T16:03:28;3.30;99.90
10149;DHT22;5115;50.920;6.376;2023-01-28T16:06:00;3.20;99.90
10149;DHT22;5115;50.920;6.376;2023-01-28T16:08:51;3.20;99.90
10149;DHT22;5115;50.920;6.376;2023-01-28T16:11:22;3.20;99.90
10149;DHT22;5115;50.920;6.376;2023-01-28T16:13:48;3.20;99.90
10149;DHT22;5115;50.920;6.376;2023-01-28T16:16:14;3.10;99.90
10149;DHT22;5115;50.920;6.376;2023-01-28T16:18:43;3.00;99.90
10149;DHT22;5115;50.920;6.376;2023-01-28T16:21:18;2.90;99.90
10149;DHT22;5115;50.920;6.376;2023-01-28T16:23:50;2.90;99.90
10149;DHT22;5115;50.920;6.376;2023-01-28T16:26:24;2.80;99.90
10149;DHT22;5115;50.920;6.376;2023-01-28T16:28:50;2.80;99.90
10149;DHT22;5115;50.920;6.376;2023-01-28T16:31:16;2.90;99.90
10149;DHT22;5115;50.920;6.376;2023-01-28T16:33:42;2.90;99.90
10149;DHT22;5115;50.920;6.376;2023-01-28T16:36:12;2.80;99.90
10149;DHT22;5115;50.920;6.376;2023-01-28T16:38:38;2.90;99.90
10149;DHT22;5115;50.920;6.376;2023-01-28T16:41:11;2.90;99.90
10149;DHT22;5115;50.920;6.376;2023-01-28T16:43:36;2.90;99.90
10149;DHT22;5115;50.920;6.376;2023-01-28T16:46:02;2.90;99.90
10149;DHT22;5115;50.920;6.376;2023-01-28T16:48:27;2.90;99.90
10149;DHT22;5115;50.920;6.376;2023-01-28T16:50:54;2.90;99.90
10149;DHT22;5115;50.920;6.376;2023-01-28T16:53:24;2.80;99.90
10149;DHT22;5115;50.920;6.376;2023-01-28T16:55:51;2.80;99.90
10149;DHT22;5115;50.920;6.376;2023-01-28T16:58:22;2.80;99.90
10149;DHT22;5115;50.920;6.376;2023-01-28T17:00:49;2.70;99.90
10149;DHT22;5115;50.920;6.376;2023-01-28T17:03:15;2.70;99.90
10149;DHT22;5115;50.920;6.376;2023-01-28T17:05:40;2.70;99.90
10149;DHT22;5115;50.920;6.376;2023-01-28T17:08:06;2.60;99.90
10149;DHT22;5115;50.920;6.376;2023-01-28T17:10:32;2.60;99.90
10149;DHT22;5115;50.920;6.376;2023-01-28T17:12:58;2.50;99.90
10149;DHT22;5115;50.920;6.376;2023-01-28T17:15:24;2.50;99.90
10149;DHT22;5115;50.920;6.376;2023-01-28T17:17:50;2.50;99.90
10149;DHT22;5115;50.920;6.376;2023-01-28T17:20:17;2.50;99.90
10149;DHT22;5115;50.920;6.376;2023-01-28T17:22:42;2.60;99.90
10149;DHT22;5115;50.920;6.376;2023-01-28T17:25:08;2.60;99.90
10149;DHT22;5115;50.920;6.376;2023-01-28T17:27:34;2.60;99.90
10149;DHT22;5115;50.920;6.376;2023-01-28T17:30:00;2.50;99.90
10149;DHT22;5115;50.920;6.376;2023-01-28T17:32:25;2.50;99.90
10149;DHT22;5115;50.920;6.376;2023-01-28T17:34:51;2.40;99.90
10149;DHT22;5115;50.920;6.376;2023-01-28T17:37:16;2.40;99.90
10149;DHT22;5115;50.920;6.376;2023-01-28T17:39:42;2.40;99.90
10149;DHT22;5115;50.920;6.376;2023-01-28T17:42:07;2.40;99.90
10149;DHT22;5115;50.920;6.376;2023-01-28T17:44:33;2.40;99.90
10149;DHT22;5115;50.920;6.376;2023-01-28T17:46:58;2.40;99.90
10149;DHT22;5115;50.920;6.376;2023-01-28T17:49:24;2.40;99.90
10149;DHT22;5115;50.920;6.376;2023-01-28T17:51:49;2.40;99.90
10149;DHT22;5115;50.920;6.376;2023-01-28T17:54:17;2.30;99.90
10149;DHT22;5115;50.920;6.376;2023-01-28T17:56:43;2.20;99.90
10149;DHT22;5115;50.920;6.376;2023-01-28T17:59:09;2.20;99.90
10149;DHT22;5115;50.920;6.376;2023-01-28T18:01:38;2.00;99.90
10149;DHT22;5115;50.920;6.376;2023-01-28T18:04:04;1.90;99.90
10149;DHT22;5115;50.920;6.376;2023-01-28T18:06:35;1.90;99.90
10149;DHT22;5115;50.920;6.376;2023-01-28T18:09:01;1.90;99.90
10149;DHT22;5115;50.920;6.376;2023-01-28T18:11:27;1.90;99.90